createdAt,value
2018-06-16T00:02:22.622Z,90.10
2018-06-16T00:04:50.943Z,90.00
2018-06-16T00:07:19.272Z,90.00
2018-06-16T00:14:43.895Z,90.20
2018-06-16T00:17:12.262Z,90.10
2018-06-16T00:19:40.519Z,90.00
2018-06-16T00:22:08.836Z,90.00
2018-06-16T00:24:37.136Z,89.60
2018-06-16T00:27:05.448Z,90.00
2018-06-16T00:29:33.754Z,89.90
2018-06-16T00:32:02.055Z,90.00
2018-06-16T00:34:30.348Z,90.10
2018-06-16T00:36:58.623Z,89.80
2018-06-16T00:39:26.928Z,89.80
2018-06-16T00:41:55.214Z,89.70
2018-06-16T00:44:23.510Z,89.70
2018-06-16T00:49:19.889Z,89.30
2018-06-16T00:51:48.168Z,89.80
2018-06-16T00:54:16.448Z,89.80
2018-06-16T00:56:51.564Z,89.80
2018-06-16T00:59:19.852Z,90.00
2018-06-16T01:01:48.168Z,89.80
2018-06-16T01:04:16.471Z,89.70
2018-06-16T01:06:44.968Z,90.10
2018-06-16T01:09:13.234Z,90.20
2018-06-16T01:11:41.505Z,90.20
2018-06-16T01:14:09.778Z,90.20
2018-06-16T01:16:38.212Z,90.30
2018-06-16T01:19:06.510Z,90.20
2018-06-16T01:21:34.792Z,90.40
2018-06-16T01:24:03.082Z,90.50
2018-06-16T01:26:31.396Z,90.50
2018-06-16T01:28:59.692Z,90.60
2018-06-16T01:31:27.990Z,90.70
2018-06-16T01:33:56.293Z,90.70
2018-06-16T01:38:52.758Z,90.90
2018-06-16T01:41:21.046Z,91.00
2018-06-16T01:43:49.372Z,91.00
2018-06-16T01:46:17.707Z,90.90
2018-06-16T01:48:45.992Z,91.10
2018-06-16T01:51:14.284Z,91.10
2018-06-16T01:53:42.590Z,91.20
2018-06-16T01:56:10.944Z,91.20
2018-06-16T01:58:39.265Z,91.40
2018-06-16T02:06:03.677Z,91.80
2018-06-16T02:08:31.965Z,91.90
2018-06-16T02:13:28.320Z,92.00
2018-06-16T02:15:56.641Z,91.90
2018-06-16T02:18:25.161Z,92.00
2018-06-16T02:20:53.948Z,92.10
2018-06-16T02:23:22.231Z,92.30
2018-06-16T02:25:50.507Z,92.10
2018-06-16T02:28:18.794Z,92.30
2018-06-16T02:30:47.091Z,92.40
2018-06-16T02:33:15.387Z,92.20
2018-06-16T02:35:43.769Z,92.60
2018-06-16T02:38:12.078Z,92.50
2018-06-16T02:43:08.428Z,92.60
2018-06-16T02:45:36.718Z,92.50
2018-06-16T02:48:05.228Z,92.60
2018-06-16T02:50:33.678Z,92.60
2018-06-16T02:53:01.875Z,92.60
2018-06-16T02:55:30.161Z,92.70
2018-06-16T02:57:58.473Z,92.70
2018-06-16T03:00:26.807Z,92.80
2018-06-16T03:02:55.094Z,92.80
2018-06-16T03:05:23.380Z,92.80
2018-06-16T03:07:51.718Z,93.10
2018-06-16T03:10:20.057Z,93.20
2018-06-16T03:12:48.359Z,93.50
2018-06-16T03:20:12.771Z,93.60
2018-06-16T03:22:41.084Z,93.70
2018-06-16T03:25:09.374Z,93.80
2018-06-16T03:27:37.750Z,94.30
2018-06-16T03:30:06.301Z,94.90
2018-06-16T03:35:02.833Z,95.90
2018-06-16T03:37:31.172Z,96.20
2018-06-16T03:39:59.466Z,96.40
2018-06-16T03:42:27.771Z,96.20
2018-06-16T03:47:24.976Z,96.60
2018-06-16T03:49:53.267Z,96.60
2018-06-16T03:52:21.566Z,96.90
2018-06-16T03:54:49.865Z,97.20
2018-06-16T03:57:18.126Z,97.40
2018-06-16T03:59:46.464Z,97.20
2018-06-16T04:02:14.741Z,97.10
2018-06-16T04:04:43.012Z,96.90
2018-06-16T04:07:11.309Z,96.70
2018-06-16T04:09:39.620Z,96.90
2018-06-16T04:12:07.909Z,96.70
2018-06-16T04:14:36.180Z,96.90
2018-06-16T04:17:08.035Z,96.60
2018-06-16T04:22:04.474Z,97.10
2018-06-16T04:24:32.778Z,97.60
2018-06-16T04:27:01.065Z,97.50
2018-06-16T04:29:29.358Z,97.50
2018-06-16T04:31:57.731Z,97.30
2018-06-16T04:36:54.044Z,97.50
2018-06-16T04:39:22.362Z,97.50
2018-06-16T04:41:50.650Z,97.50
2018-06-16T04:44:18.945Z,97.60
2018-06-16T04:46:47.227Z,98.10
2018-06-16T04:49:15.509Z,97.90
2018-06-16T04:51:43.827Z,98.10
2018-06-16T04:54:12.146Z,98.30
2018-06-16T04:56:40.427Z,98.50
2018-06-16T04:59:08.724Z,98.50
2018-06-16T05:01:37.054Z,98.20
2018-06-16T05:04:05.368Z,98.60
2018-06-16T05:06:33.672Z,98.80
2018-06-16T05:09:01.957Z,98.30
2018-06-16T05:11:30.239Z,98.40
2018-06-16T05:13:58.554Z,98.60
2018-06-16T05:16:26.838Z,98.80
2018-06-16T05:18:55.150Z,98.80
2018-06-16T05:21:23.482Z,98.20
2018-06-16T05:23:51.802Z,98.30
2018-06-16T05:26:20.115Z,98.20
2018-06-16T05:28:48.426Z,98.30
2018-06-16T05:31:16.754Z,98.40
2018-06-16T05:33:45.040Z,98.60
2018-06-16T05:36:13.360Z,98.70
2018-06-16T05:38:42.660Z,98.70
2018-06-16T05:41:10.964Z,98.80
2018-06-16T05:43:39.260Z,98.60
2018-06-16T05:46:07.586Z,98.60
2018-06-16T05:48:35.893Z,98.70
2018-06-16T05:51:04.186Z,98.70
2018-06-16T05:53:32.482Z,98.80
2018-06-16T05:56:00.784Z,98.90
2018-06-16T05:58:29.113Z,98.90
2018-06-16T06:00:57.418Z,98.90
2018-06-16T06:03:25.732Z,99.50
2018-06-16T06:05:54.038Z,99.20
2018-06-16T06:08:22.406Z,99.50
2018-06-16T06:10:50.718Z,99.30
2018-06-16T06:13:19.044Z,99.20
2018-06-16T06:15:47.435Z,99.10
2018-06-16T06:18:15.710Z,99.00
2018-06-16T06:20:44.022Z,99.10
2018-06-16T06:23:12.334Z,99.30
2018-06-16T06:25:40.682Z,99.30
2018-06-16T06:28:08.998Z,99.20
2018-06-16T06:30:37.310Z,99.10
2018-06-16T06:33:05.608Z,99.30
2018-06-16T06:35:33.964Z,99.40
2018-06-16T06:38:02.269Z,99.40
2018-06-16T06:40:30.590Z,99.70
2018-06-16T06:42:58.914Z,99.80
2018-06-16T06:45:27.226Z,99.70
2018-06-16T06:47:55.616Z,99.80
2018-06-16T06:50:23.962Z,99.50
2018-06-16T06:52:52.708Z,99.70
2018-06-16T06:55:21.043Z,99.50
2018-06-16T06:57:49.365Z,99.60
2018-06-16T07:00:17.661Z,99.30
2018-06-16T07:02:45.960Z,99.10
2018-06-16T07:05:14.634Z,99.50
2018-06-16T07:07:42.933Z,99.10
2018-06-16T07:10:11.273Z,99.20
2018-06-16T07:12:39.648Z,99.30
2018-06-16T07:15:07.982Z,99.10
2018-06-16T07:17:36.283Z,99.00
2018-06-16T07:22:32.705Z,99.20
2018-06-16T07:25:01.023Z,98.70
2018-06-16T07:27:29.346Z,98.70
2018-06-16T07:29:57.706Z,98.50
2018-06-16T07:32:26.008Z,98.40
2018-06-16T07:34:54.360Z,98.50
2018-06-16T07:37:22.667Z,98.40
2018-06-16T07:39:50.974Z,98.30
2018-06-16T07:42:19.272Z,98.10
2018-06-16T07:44:47.608Z,97.90
2018-06-16T07:47:15.910Z,97.60
2018-06-16T07:49:44.221Z,98.20
2018-06-16T07:52:12.531Z,98.00
2018-06-16T07:54:40.847Z,97.80
2018-06-16T07:57:09.182Z,97.50
2018-06-16T07:59:37.525Z,97.50
2018-06-16T08:02:05.856Z,97.70
2018-06-16T08:04:34.158Z,97.70
2018-06-16T08:07:02.448Z,97.80
2018-06-16T08:09:30.796Z,98.00
2018-06-16T08:11:59.132Z,97.60
2018-06-16T08:14:27.439Z,97.60
2018-06-16T08:16:55.722Z,97.10
2018-06-16T08:19:24.402Z,96.60
2018-06-16T08:24:20.759Z,96.40
2018-06-16T08:26:49.058Z,95.80
2018-06-16T08:29:17.344Z,95.40
2018-06-16T08:31:45.690Z,94.90
2018-06-16T08:34:14.033Z,95.40
2018-06-16T08:36:42.399Z,93.90
2018-06-16T08:39:12.009Z,94.10
2018-06-16T08:41:40.694Z,94.50
2018-06-16T08:44:09.493Z,93.50
2018-06-16T08:46:38.095Z,93.40
2018-06-16T08:49:06.565Z,93.90
2018-06-16T08:51:34.861Z,93.40
2018-06-16T08:54:03.196Z,93.20
2018-06-16T08:56:31.535Z,92.60
2018-06-16T08:59:02.846Z,92.60
2018-06-16T09:01:31.144Z,92.50
2018-06-16T09:03:59.429Z,92.50
2018-06-16T09:06:27.736Z,92.30
2018-06-16T09:08:56.065Z,91.70
2018-06-16T09:13:52.664Z,91.10
2018-06-16T09:16:21.004Z,91.80
2018-06-16T09:18:49.286Z,91.80
2018-06-16T09:21:17.643Z,91.90
2018-06-16T09:28:42.076Z,90.30
2018-06-16T09:31:10.375Z,90.60
2018-06-16T09:33:38.690Z,89.80
2018-06-16T09:36:07.083Z,89.80
2018-06-16T09:38:35.416Z,88.90
2018-06-16T09:41:03.720Z,87.40
2018-06-16T09:43:32.046Z,87.40
2018-06-16T09:46:00.358Z,84.70
2018-06-16T09:48:28.698Z,85.70
2018-06-16T09:50:57.032Z,83.70
2018-06-16T09:53:25.324Z,84.10
2018-06-16T09:55:53.600Z,84.70
2018-06-16T09:58:21.976Z,83.30
2018-06-16T10:03:18.376Z,83.40
2018-06-16T10:05:46.661Z,83.40
2018-06-16T10:08:14.989Z,85.10
2018-06-16T10:10:43.307Z,85.40
2018-06-16T10:13:11.620Z,84.70
2018-06-16T10:15:39.935Z,82.80
2018-06-16T10:18:08.285Z,81.90
2018-06-16T10:20:36.642Z,82.30
2018-06-16T10:23:04.973Z,80.90
2018-06-16T10:25:33.280Z,81.30
2018-06-16T10:28:01.572Z,81.70
2018-06-16T10:30:29.888Z,81.60
2018-06-16T10:32:58.168Z,79.40
2018-06-16T10:35:26.456Z,79.80
2018-06-16T10:37:54.768Z,79.60
2018-06-16T10:40:23.108Z,80.20
2018-06-16T10:42:51.388Z,80.40
2018-06-16T10:45:19.668Z,80.30
2018-06-16T10:47:47.977Z,79.50
2018-06-16T10:50:16.294Z,80.70
2018-06-16T10:52:44.595Z,80.50
2018-06-16T10:55:12.898Z,80.80
2018-06-16T10:57:41.194Z,80.30
2018-06-16T11:00:09.578Z,80.70
2018-06-16T11:02:37.886Z,79.80
2018-06-16T11:05:06.172Z,79.80
2018-06-16T11:07:34.484Z,79.40
2018-06-16T11:10:02.793Z,79.60
2018-06-16T11:12:31.096Z,80.60
2018-06-16T11:14:59.432Z,79.70
2018-06-16T11:17:27.764Z,78.10
2018-06-16T11:19:56.042Z,78.00
2018-06-16T11:22:24.359Z,77.70
2018-06-16T11:24:52.910Z,75.90
2018-06-16T11:27:21.228Z,76.00
2018-06-16T11:29:49.585Z,75.30
2018-06-16T11:32:17.872Z,74.20
2018-06-16T11:34:46.196Z,74.60
2018-06-16T11:37:15.027Z,74.10
2018-06-16T11:39:43.373Z,74.80
2018-06-16T11:42:11.724Z,74.50
2018-06-16T11:44:40.173Z,73.90
2018-06-16T11:47:08.502Z,75.30
2018-06-16T11:49:36.850Z,74.20
2018-06-16T11:52:05.148Z,74.50
2018-06-16T11:54:33.588Z,75.60
2018-06-16T11:57:02.045Z,73.10
2018-06-16T11:59:30.392Z,72.60
2018-06-16T12:01:58.752Z,73.00
2018-06-16T12:04:27.036Z,74.40
2018-06-16T12:06:55.346Z,73.20
2018-06-16T12:09:23.698Z,73.70
2018-06-16T12:11:52.004Z,72.70
2018-06-16T12:14:20.270Z,69.40
2018-06-16T12:16:48.638Z,69.30
2018-06-16T12:19:16.956Z,68.20
2018-06-16T12:21:45.286Z,67.00
2018-06-16T12:24:13.596Z,67.40
2018-06-16T12:26:42.078Z,65.60
2018-06-16T12:29:10.386Z,65.90
2018-06-16T12:31:38.696Z,66.60
2018-06-16T12:34:06.963Z,66.20
2018-06-16T12:36:35.273Z,65.80
2018-06-16T12:39:05.234Z,65.70
2018-06-16T12:41:33.530Z,65.70
2018-06-16T12:44:01.821Z,64.50
2018-06-16T12:46:30.101Z,62.70
2018-06-16T12:48:58.417Z,62.60
2018-06-16T12:51:26.914Z,62.40
2018-06-16T12:53:55.270Z,62.50
2018-06-16T12:56:23.635Z,62.90
2018-06-16T12:58:51.940Z,62.40
2018-06-16T13:01:20.246Z,61.70
2018-06-16T13:03:48.548Z,62.60
2018-06-16T13:06:16.839Z,63.90
2018-06-16T13:08:45.163Z,63.70
2018-06-16T13:11:13.942Z,65.20
2018-06-16T13:13:42.243Z,66.40
2018-06-16T13:16:10.516Z,66.90
2018-06-16T13:18:38.856Z,67.70
2018-06-16T13:21:07.172Z,67.90
2018-06-16T13:23:35.483Z,67.00
2018-06-16T13:26:03.786Z,67.90
2018-06-16T13:28:32.131Z,68.40
2018-06-16T13:31:00.414Z,68.60
2018-06-16T13:33:28.693Z,69.50
2018-06-16T13:35:56.989Z,69.90
2018-06-16T13:38:25.316Z,69.20
2018-06-16T13:40:53.593Z,70.10
2018-06-16T13:43:21.899Z,68.00
2018-06-16T13:45:50.195Z,68.70
2018-06-16T13:48:18.557Z,66.10
2018-06-16T13:50:46.873Z,67.50
2018-06-16T13:53:15.205Z,68.40
2018-06-16T13:55:43.518Z,69.10
2018-06-16T13:58:11.821Z,70.30
2018-06-16T14:00:40.146Z,68.70
2018-06-16T14:03:08.438Z,68.70
2018-06-16T14:05:36.728Z,68.20
2018-06-16T14:08:05.382Z,69.00
2018-06-16T14:10:33.698Z,68.90
2018-06-16T14:13:02.022Z,69.50
2018-06-16T14:15:30.312Z,68.60
2018-06-16T14:17:58.622Z,68.70
2018-06-16T14:20:26.924Z,68.20
2018-06-16T14:22:55.231Z,67.80
2018-06-16T14:25:23.570Z,67.80
2018-06-16T14:27:51.880Z,68.90
2018-06-16T14:30:20.228Z,70.40
2018-06-16T14:32:48.557Z,70.20
2018-06-16T14:35:16.898Z,68.70
2018-06-16T14:37:45.222Z,69.60
2018-06-16T14:40:13.523Z,68.10
2018-06-16T14:42:41.815Z,69.10
2018-06-16T14:45:10.094Z,69.70
2018-06-16T14:47:38.390Z,69.80
2018-06-16T14:50:06.730Z,70.60
2018-06-16T14:52:35.082Z,71.70
2018-06-16T14:55:03.370Z,72.10
2018-06-16T14:57:31.678Z,72.40
2018-06-16T14:59:59.992Z,73.10
2018-06-16T15:02:28.318Z,73.20
2018-06-16T15:04:56.649Z,72.30
2018-06-16T15:07:24.922Z,72.50
2018-06-16T15:09:53.350Z,71.10
2018-06-16T15:14:49.742Z,70.80
2018-06-16T15:17:18.068Z,70.50
2018-06-16T15:19:46.390Z,71.10
2018-06-16T15:22:14.908Z,71.50
2018-06-16T15:24:43.174Z,70.70
2018-06-16T15:27:11.464Z,69.90
2018-06-16T15:29:39.900Z,70.50
2018-06-16T15:32:08.186Z,69.40
2018-06-16T15:34:36.509Z,69.30
2018-06-16T15:37:04.830Z,69.60
2018-06-16T15:39:33.150Z,69.70
2018-06-16T15:42:01.484Z,69.50
2018-06-16T15:44:29.804Z,70.00
2018-06-16T15:46:58.122Z,69.40
2018-06-16T15:49:26.417Z,69.40
2018-06-16T15:51:54.732Z,70.10
2018-06-16T15:54:23.063Z,70.20
2018-06-16T15:56:51.378Z,69.70
2018-06-16T15:59:19.684Z,70.20
2018-06-16T16:01:48.036Z,70.60
2018-06-16T16:04:16.346Z,71.90
2018-06-16T16:06:44.703Z,72.40
2018-06-16T16:11:41.207Z,69.80
2018-06-16T16:14:09.519Z,70.30
2018-06-16T16:16:37.852Z,71.50
2018-06-16T16:19:06.181Z,73.00
2018-06-16T16:21:34.518Z,71.60
2018-06-16T16:24:02.853Z,72.20
2018-06-16T16:26:31.187Z,70.40
2018-06-16T16:29:00.116Z,70.00
2018-06-16T16:31:28.422Z,69.60
2018-06-16T16:33:56.720Z,70.50
2018-06-16T16:36:25.113Z,70.30
2018-06-16T16:38:53.432Z,70.70
2018-06-16T16:41:21.730Z,71.00
2018-06-16T16:43:50.026Z,70.90
2018-06-16T16:46:18.376Z,71.00
2018-06-16T16:48:46.679Z,71.50
2018-06-16T16:51:14.971Z,71.90
2018-06-16T16:53:43.286Z,72.00
2018-06-16T16:56:11.619Z,72.60
2018-06-16T16:58:39.924Z,72.70
2018-06-16T17:01:08.224Z,72.70
2018-06-16T17:03:36.537Z,72.50
2018-06-16T17:06:05.106Z,73.10
2018-06-16T17:08:33.384Z,72.50
2018-06-16T17:11:01.698Z,72.40
2018-06-16T17:13:30.032Z,73.30
2018-06-16T17:15:58.349Z,73.20
2018-06-16T17:18:26.661Z,70.60
2018-06-16T17:20:54.978Z,71.80
2018-06-16T17:23:23.336Z,71.30
2018-06-16T17:25:51.671Z,71.50
2018-06-16T17:28:19.992Z,71.40
2018-06-16T17:30:48.314Z,70.30
2018-06-16T17:33:16.628Z,70.60
2018-06-16T17:35:44.967Z,69.30
2018-06-16T17:38:13.244Z,67.80
2018-06-16T17:40:41.657Z,67.80
2018-06-16T17:43:09.972Z,67.60
2018-06-16T17:45:38.613Z,67.80
2018-06-16T17:50:35.038Z,67.20
2018-06-16T17:53:03.369Z,64.40
2018-06-16T17:55:31.688Z,63.70
2018-06-16T17:58:00.000Z,65.00
2018-06-16T18:00:28.310Z,64.50
2018-06-16T18:02:56.616Z,63.60
2018-06-16T18:05:24.958Z,63.80
2018-06-16T18:07:53.265Z,64.50
2018-06-16T18:10:21.570Z,64.60
2018-06-16T18:12:49.847Z,64.20
2018-06-16T18:15:18.157Z,64.30
2018-06-16T18:17:46.483Z,64.60
2018-06-16T18:20:14.768Z,64.30
2018-06-16T18:22:43.061Z,64.30
2018-06-16T18:25:11.366Z,64.80
2018-06-16T18:27:39.665Z,64.70
2018-06-16T18:30:07.962Z,65.40
2018-06-16T18:32:36.285Z,65.80
2018-06-16T18:35:04.636Z,65.30
2018-06-16T18:37:32.945Z,66.50
2018-06-16T18:40:01.275Z,67.10
2018-06-16T18:42:29.549Z,69.10
2018-06-16T18:44:57.845Z,72.60
2018-06-16T18:47:26.127Z,74.00
2018-06-16T18:52:22.610Z,77.60
2018-06-16T18:54:50.942Z,79.10
2018-06-16T18:57:19.257Z,80.90
2018-06-16T18:59:47.637Z,81.80
2018-06-16T19:02:15.933Z,83.60
2018-06-16T19:04:44.211Z,84.30
2018-06-16T19:07:12.538Z,87.10
2018-06-16T19:09:40.835Z,88.90
2018-06-16T19:12:09.155Z,90.10
2018-06-16T19:14:37.471Z,90.50
2018-06-16T19:17:05.844Z,91.10
2018-06-16T19:22:02.205Z,91.80
2018-06-16T19:24:30.530Z,92.50
2018-06-16T19:26:58.849Z,92.70
2018-06-16T19:29:27.142Z,93.20
2018-06-16T19:31:55.432Z,93.50
2018-06-16T19:34:23.778Z,93.70
2018-06-16T19:36:52.125Z,93.80
2018-06-16T19:39:20.442Z,94.10
2018-06-16T19:41:48.735Z,94.20
2018-06-16T19:44:17.021Z,94.40
2018-06-16T19:46:45.327Z,94.50
2018-06-16T19:49:13.668Z,94.70
2018-06-16T19:51:42.035Z,95.10
2018-06-16T19:54:10.419Z,95.20
2018-06-16T19:56:38.705Z,95.00
2018-06-16T19:59:07.049Z,95.10
2018-06-16T20:01:35.369Z,95.20
2018-06-16T20:04:03.717Z,95.20
2018-06-16T20:06:32.038Z,95.10
2018-06-16T20:09:00.497Z,94.90
2018-06-16T20:11:28.861Z,94.90
2018-06-16T20:13:57.346Z,94.90
2018-06-16T20:16:25.661Z,94.90
2018-06-16T20:18:54.005Z,94.80
2018-06-16T20:21:22.431Z,94.70
2018-06-16T20:23:50.776Z,94.70
2018-06-16T20:26:19.085Z,94.70
2018-06-16T20:28:47.423Z,94.70
2018-06-16T20:31:15.868Z,94.60
2018-06-16T20:33:44.422Z,94.70
2018-06-16T20:36:12.733Z,94.80
2018-06-16T20:38:41.023Z,95.30
2018-06-16T20:41:09.389Z,95.80
2018-06-16T20:43:37.707Z,96.10
2018-06-16T20:46:06.181Z,96.60
2018-06-16T20:48:34.541Z,96.80
2018-06-16T20:51:03.716Z,96.90
2018-06-16T20:53:32.109Z,97.00
2018-06-16T20:56:00.440Z,96.90
2018-06-16T20:58:28.807Z,96.80
2018-06-16T21:05:54.254Z,97.00
2018-06-16T21:08:23.202Z,97.30
2018-06-16T21:10:51.503Z,97.40
2018-06-16T21:13:20.066Z,96.80
2018-06-16T21:15:48.438Z,97.60
2018-06-16T21:18:16.761Z,97.70
2018-06-16T21:20:45.093Z,98.20
2018-06-16T21:23:13.405Z,98.80
2018-06-16T21:25:41.733Z,98.70
2018-06-16T21:28:10.036Z,97.60
2018-06-16T21:30:38.349Z,97.10
2018-06-16T21:33:06.706Z,97.20
2018-06-16T21:35:35.029Z,97.10
2018-06-16T21:38:03.353Z,96.60
2018-06-16T21:40:31.669Z,96.90
2018-06-16T21:42:59.971Z,97.00
2018-06-16T21:45:28.267Z,97.00
2018-06-16T21:47:56.593Z,96.60
2018-06-16T21:50:24.913Z,96.30
2018-06-16T21:52:53.245Z,96.30
2018-06-16T21:55:21.623Z,95.80
2018-06-16T21:57:49.939Z,96.10
2018-06-16T22:00:18.226Z,95.80
2018-06-16T22:02:46.523Z,95.80
2018-06-16T22:05:14.853Z,95.80
2018-06-16T22:07:43.139Z,95.70
2018-06-16T22:10:11.479Z,95.40
2018-06-16T22:12:39.787Z,95.60
2018-06-16T22:15:14.483Z,95.50
2018-06-16T22:17:42.847Z,95.30
2018-06-16T22:20:11.133Z,95.40
2018-06-16T22:22:39.441Z,95.10
2018-06-16T22:27:35.816Z,95.60
2018-06-16T22:30:04.149Z,95.90
2018-06-16T22:32:32.452Z,95.80
2018-06-16T22:35:00.759Z,95.70
2018-06-16T22:37:29.085Z,95.90
2018-06-16T22:39:57.460Z,96.00
2018-06-16T22:42:25.806Z,96.10
2018-06-16T22:44:54.132Z,96.00
2018-06-16T22:47:22.449Z,96.30
2018-06-16T22:49:50.759Z,96.10
2018-06-16T22:52:19.103Z,96.20
2018-06-16T22:54:47.403Z,96.10
2018-06-16T22:57:15.714Z,96.20
2018-06-16T22:59:44.025Z,96.20
2018-06-16T23:02:12.343Z,96.20
2018-06-16T23:04:40.656Z,96.10
2018-06-16T23:07:08.967Z,96.20
2018-06-16T23:09:37.300Z,96.40
2018-06-16T23:12:05.595Z,96.50
2018-06-16T23:14:33.959Z,96.70
2018-06-16T23:17:02.249Z,96.80
2018-06-16T23:19:30.598Z,96.80
2018-06-16T23:21:58.867Z,97.00
2018-06-16T23:24:27.180Z,97.20
2018-06-16T23:26:55.529Z,97.30
2018-06-16T23:29:23.860Z,97.30
2018-06-16T23:31:52.145Z,97.40
2018-06-16T23:34:20.475Z,97.50
2018-06-16T23:36:48.769Z,97.60
2018-06-16T23:39:17.139Z,97.60
2018-06-16T23:41:45.491Z,97.50
2018-06-16T23:44:13.775Z,97.80
2018-06-16T23:46:42.155Z,98.00
2018-06-16T23:49:10.519Z,98.30
2018-06-16T23:51:38.805Z,98.40
2018-06-16T23:54:07.255Z,98.50
2018-06-16T23:56:35.561Z,98.60
2018-06-16T23:59:03.883Z,99.20
